createdAt,value
2018-12-23T00:02:00.171Z,2.35
2018-12-23T00:04:29.200Z,2.58
2018-12-23T00:06:58.218Z,2.30
2018-12-23T00:09:27.239Z,2.87
2018-12-23T00:11:56.496Z,2.42
2018-12-23T00:14:25.545Z,2.60
2018-12-23T00:16:55.684Z,2.80
2018-12-23T00:19:24.808Z,2.30
2018-12-23T00:21:54.016Z,2.20
2018-12-23T00:24:23.139Z,2.40
2018-12-23T00:26:53.430Z,2.40
2018-12-23T00:29:22.671Z,2.22
2018-12-23T00:31:51.714Z,2.60
2018-12-23T00:34:20.775Z,2.27
2018-12-23T00:36:49.841Z,2.45
2018-12-23T00:39:18.896Z,1.98
2018-12-23T00:41:47.973Z,2.15
2018-12-23T00:44:17.039Z,2.60
2018-12-23T00:46:46.197Z,2.10
2018-12-23T00:49:15.245Z,2.45
2018-12-23T00:51:44.286Z,2.17
2018-12-23T00:54:13.320Z,2.60
2018-12-23T00:56:42.352Z,2.10
2018-12-23T00:59:11.377Z,2.10
2018-12-23T01:01:40.467Z,2.45
2018-12-23T01:04:09.541Z,2.60
2018-12-23T01:06:38.694Z,2.42
2018-12-23T01:09:08.499Z,2.30
2018-12-23T01:11:38.231Z,2.42
2018-12-23T01:14:07.311Z,2.42
2018-12-23T01:16:36.368Z,2.70
2018-12-23T01:19:05.422Z,2.40
2018-12-23T01:21:34.451Z,2.72
2018-12-23T01:24:03.515Z,2.70
2018-12-23T01:26:32.613Z,2.37
2018-12-23T01:29:01.721Z,2.10
2018-12-23T01:31:30.776Z,2.45
2018-12-23T01:33:59.785Z,2.58
2018-12-23T01:36:28.897Z,2.80
2018-12-23T01:38:57.970Z,2.40
2018-12-23T01:41:26.972Z,2.70
2018-12-23T01:43:56.020Z,2.60
2018-12-23T01:46:25.047Z,2.80
2018-12-23T01:48:54.167Z,2.95
2018-12-23T01:51:23.239Z,3.20
2018-12-23T01:53:52.257Z,2.90
2018-12-23T01:56:21.328Z,2.65
2018-12-23T01:58:50.384Z,3.30
2018-12-23T02:01:19.465Z,2.80
2018-12-23T02:03:48.608Z,2.65
2018-12-23T02:06:17.686Z,2.95
2018-12-23T02:08:46.839Z,2.87
2018-12-23T02:11:15.867Z,2.85
2018-12-23T02:13:44.903Z,2.80
2018-12-23T02:16:13.954Z,2.90
2018-12-23T02:18:43.037Z,2.65
2018-12-23T02:21:13.100Z,2.85
2018-12-23T02:23:42.244Z,2.62
2018-12-23T02:26:11.293Z,2.60
2018-12-23T02:28:40.300Z,2.70
2018-12-23T02:31:09.336Z,2.67
2018-12-23T02:33:38.761Z,3.37
2018-12-23T02:36:07.788Z,2.45
2018-12-23T02:38:36.841Z,2.98
2018-12-23T02:41:05.858Z,3.35
2018-12-23T02:43:34.998Z,3.10
2018-12-23T02:46:04.063Z,3.17
2018-12-23T02:48:33.124Z,3.10
2018-12-23T02:51:02.171Z,3.30
2018-12-23T02:53:31.195Z,2.90
2018-12-23T02:56:00.301Z,3.70
2018-12-23T02:58:29.368Z,3.12
2018-12-23T03:00:58.446Z,2.95
2018-12-23T03:03:28.444Z,3.00
2018-12-23T03:06:05.889Z,3.05
2018-12-23T03:08:28.528Z,2.95
2018-12-23T03:10:57.615Z,3.30
2018-12-23T03:13:33.197Z,3.22
2018-12-23T03:16:02.316Z,2.92
2018-12-23T03:18:31.364Z,3.37
2018-12-23T03:21:00.428Z,3.10
2018-12-23T03:23:29.474Z,3.30
2018-12-23T03:25:58.490Z,3.15
2018-12-23T03:28:27.539Z,3.05
2018-12-23T03:30:56.594Z,3.47
2018-12-23T03:33:25.653Z,3.60
2018-12-23T03:35:54.736Z,3.42
2018-12-23T03:38:23.763Z,3.83
2018-12-23T03:40:52.829Z,3.52
2018-12-23T03:43:21.997Z,3.30
2018-12-23T03:45:51.021Z,3.83
2018-12-23T03:48:20.047Z,4.12
2018-12-23T03:50:49.147Z,3.60
2018-12-23T03:53:19.678Z,3.60
2018-12-23T03:55:48.832Z,3.83
2018-12-23T03:58:18.095Z,3.90
2018-12-23T04:00:47.178Z,3.95
2018-12-23T04:03:16.240Z,4.60
2018-12-23T04:05:45.407Z,3.60
2018-12-23T04:08:14.440Z,3.92
2018-12-23T04:10:43.475Z,3.75
2018-12-23T04:13:12.613Z,4.20
2018-12-23T04:15:41.764Z,3.98
2018-12-23T04:18:10.806Z,3.40
2018-12-23T04:20:39.849Z,3.90
2018-12-23T04:23:08.936Z,4.37
2018-12-23T04:25:37.960Z,4.78
2018-12-23T04:28:06.975Z,3.87
2018-12-23T04:30:36.005Z,4.30
2018-12-23T04:33:05.050Z,3.90
2018-12-23T04:35:34.109Z,4.22
2018-12-23T04:38:03.124Z,3.87
2018-12-23T04:40:32.152Z,5.00
2018-12-23T04:43:01.191Z,3.72
2018-12-23T04:45:30.267Z,4.10
2018-12-23T04:47:59.459Z,3.60
2018-12-23T04:50:28.476Z,3.60
2018-12-23T04:52:57.498Z,4.28
2018-12-23T04:55:26.532Z,3.87
2018-12-23T04:57:55.563Z,3.65
2018-12-23T05:00:24.718Z,3.98
2018-12-23T05:02:53.970Z,3.77
2018-12-23T05:05:23.046Z,3.67
2018-12-23T05:07:52.070Z,4.00
2018-12-23T05:10:21.174Z,4.08
2018-12-23T05:12:50.415Z,3.77
2018-12-23T05:15:19.486Z,3.42
2018-12-23T05:17:48.583Z,3.65
2018-12-23T05:20:17.603Z,4.37
2018-12-23T05:22:46.648Z,3.80
2018-12-23T05:25:15.707Z,4.10
2018-12-23T05:27:51.097Z,4.50
2018-12-23T05:30:20.160Z,4.50
2018-12-23T05:32:49.975Z,3.80
2018-12-23T05:35:19.142Z,3.80
2018-12-23T05:37:48.182Z,3.58
2018-12-23T05:40:17.247Z,3.55
2018-12-23T05:42:46.292Z,3.42
2018-12-23T05:45:15.367Z,3.75
2018-12-23T05:47:44.541Z,3.85
2018-12-23T05:50:13.624Z,4.00
2018-12-23T05:52:42.684Z,4.05
2018-12-23T05:55:11.731Z,4.17
2018-12-23T05:57:40.781Z,4.50
2018-12-23T06:00:09.794Z,3.33
2018-12-23T06:02:38.871Z,3.65
2018-12-23T06:05:07.954Z,3.50
2018-12-23T06:07:37.033Z,4.03
2018-12-23T06:10:06.381Z,3.95
2018-12-23T06:12:35.398Z,4.28
2018-12-23T06:15:04.693Z,3.25
2018-12-23T06:17:33.722Z,3.62
2018-12-23T06:20:02.764Z,4.33
2018-12-23T06:22:31.810Z,3.73
2018-12-23T06:25:00.808Z,3.80
2018-12-23T06:27:29.850Z,3.70
2018-12-23T06:29:58.898Z,4.03
2018-12-23T06:32:28.031Z,3.60
2018-12-23T06:34:57.098Z,4.10
2018-12-23T06:37:26.137Z,3.95
2018-12-23T06:39:55.234Z,3.65
2018-12-23T06:42:24.312Z,3.75
2018-12-23T06:44:53.444Z,4.28
2018-12-23T06:47:22.450Z,3.80
2018-12-23T06:49:51.502Z,3.77
2018-12-23T06:52:20.524Z,4.03
2018-12-23T06:54:50.751Z,4.47
2018-12-23T06:57:19.871Z,3.65
2018-12-23T06:59:49.057Z,4.35
2018-12-23T07:02:18.092Z,3.90
2018-12-23T07:04:47.128Z,3.97
2018-12-23T07:07:18.716Z,3.60
2018-12-23T07:09:47.190Z,3.70
2018-12-23T07:12:16.231Z,3.83
2018-12-23T07:14:45.279Z,3.80
2018-12-23T07:17:14.396Z,3.85
2018-12-23T07:19:43.438Z,4.20
2018-12-23T07:22:12.429Z,3.67
2018-12-23T07:24:41.546Z,3.70
2018-12-23T07:27:10.659Z,3.83
2018-12-23T07:29:39.686Z,3.75
2018-12-23T07:32:08.732Z,3.50
2018-12-23T07:34:37.791Z,4.50
2018-12-23T07:37:06.820Z,3.72
2018-12-23T07:39:36.974Z,4.08
2018-12-23T07:42:06.004Z,3.72
2018-12-23T07:44:35.200Z,3.92
2018-12-23T07:47:04.288Z,4.03
2018-12-23T07:49:33.349Z,3.90
2018-12-23T07:52:02.541Z,3.97
2018-12-23T07:54:31.671Z,3.67
2018-12-23T07:57:00.736Z,3.85
2018-12-23T07:59:29.807Z,3.30
2018-12-23T08:01:58.847Z,3.60
2018-12-23T08:04:27.914Z,3.67
2018-12-23T08:06:56.990Z,5.90
2018-12-23T08:09:26.269Z,5.25
2018-12-23T08:11:55.315Z,4.95
2018-12-23T08:14:25.027Z,4.03
2018-12-23T08:16:54.114Z,4.10
2018-12-23T08:19:23.231Z,3.75
2018-12-23T08:21:52.285Z,3.80
2018-12-23T08:24:21.310Z,3.77
2018-12-23T08:26:50.338Z,3.52
2018-12-23T08:29:19.423Z,3.50
2018-12-23T08:31:48.806Z,4.07
2018-12-23T08:34:17.892Z,4.60
2018-12-23T08:36:46.897Z,4.28
2018-12-23T08:39:15.958Z,3.95
2018-12-23T08:41:45.039Z,3.60
2018-12-23T08:44:14.185Z,3.33
2018-12-23T08:46:43.204Z,3.22
2018-12-23T08:49:12.261Z,3.90
2018-12-23T08:51:41.330Z,5.12
2018-12-23T08:54:10.374Z,4.10
2018-12-23T08:56:39.414Z,4.80
2018-12-23T08:59:08.488Z,5.10
2018-12-23T09:01:37.620Z,3.80
2018-12-23T09:04:06.677Z,3.27
2018-12-23T09:06:35.709Z,3.52
2018-12-23T09:09:06.537Z,2.95
2018-12-23T09:11:42.659Z,3.00
2018-12-23T09:14:06.827Z,3.25
2018-12-23T09:16:35.876Z,4.15
2018-12-23T09:19:04.928Z,4.10
2018-12-23T09:21:34.010Z,3.70
2018-12-23T09:24:03.063Z,2.83
2018-12-23T09:26:32.122Z,2.80
2018-12-23T09:29:01.178Z,2.70
2018-12-23T09:31:30.268Z,2.58
2018-12-23T09:33:59.307Z,2.85
2018-12-23T09:36:28.571Z,2.72
2018-12-23T09:38:57.649Z,3.60
2018-12-23T09:41:26.800Z,4.25
2018-12-23T09:43:55.838Z,4.22
2018-12-23T09:46:24.891Z,3.98
2018-12-23T09:48:53.961Z,3.72
2018-12-23T09:51:23.009Z,3.90
2018-12-23T09:53:52.031Z,3.52
2018-12-23T09:56:21.145Z,3.50
2018-12-23T09:58:50.162Z,3.83
2018-12-23T10:01:19.245Z,3.52
2018-12-23T10:03:54.793Z,3.92
2018-12-23T10:06:23.855Z,3.15
2018-12-23T10:08:52.863Z,3.27
2018-12-23T10:11:22.125Z,3.42
2018-12-23T10:13:51.154Z,2.90
2018-12-23T10:16:20.219Z,3.10
2018-12-23T10:18:49.700Z,2.80
2018-12-23T10:21:18.862Z,3.12
2018-12-23T10:23:47.987Z,3.50
2018-12-23T10:26:17.107Z,2.90
2018-12-23T10:28:46.171Z,3.25
2018-12-23T10:31:15.338Z,2.40
2018-12-23T10:33:44.459Z,3.00
2018-12-23T10:36:13.543Z,3.02
2018-12-23T10:38:42.753Z,2.55
2018-12-23T10:41:12.111Z,3.20
2018-12-23T10:43:41.255Z,2.92
2018-12-23T10:46:10.293Z,2.90
2018-12-23T10:48:39.650Z,2.52
2018-12-23T10:51:08.681Z,2.60
2018-12-23T10:53:37.793Z,2.65
2018-12-23T10:56:06.958Z,2.83
2018-12-23T10:58:36.193Z,2.60
2018-12-23T11:01:05.594Z,2.50
2018-12-23T11:03:34.912Z,2.75
2018-12-23T11:06:04.038Z,2.77
2018-12-23T11:08:33.166Z,2.52
2018-12-23T11:11:02.237Z,2.60
2018-12-23T11:13:31.403Z,2.77
2018-12-23T11:16:00.761Z,2.40
2018-12-23T11:18:29.827Z,2.52
2018-12-23T11:20:58.939Z,2.80
2018-12-23T11:23:27.983Z,2.90
2018-12-23T11:25:57.053Z,2.50
2018-12-23T11:28:26.071Z,2.52
2018-12-23T11:30:55.196Z,3.25
2018-12-23T11:33:24.217Z,2.40
2018-12-23T11:35:53.312Z,3.25
2018-12-23T11:38:22.345Z,2.85
2018-12-23T11:40:51.406Z,2.80
2018-12-23T11:43:20.456Z,2.62
2018-12-23T11:45:49.688Z,2.90
2018-12-23T11:48:18.760Z,2.80
2018-12-23T11:50:47.804Z,3.55
2018-12-23T11:53:17.847Z,2.95
2018-12-23T11:55:48.216Z,3.02
2018-12-23T11:58:17.235Z,2.47
2018-12-23T12:00:46.260Z,2.95
2018-12-23T12:03:21.462Z,2.98
2018-12-23T12:05:51.163Z,3.12
2018-12-23T12:08:20.191Z,3.40
2018-12-23T12:10:49.190Z,3.72
2018-12-23T12:13:18.233Z,3.33
2018-12-23T12:15:47.235Z,3.10
2018-12-23T12:18:16.221Z,3.00
2018-12-23T12:20:45.267Z,3.02
2018-12-23T12:23:14.357Z,3.05
2018-12-23T12:25:43.396Z,2.72
2018-12-23T12:28:12.566Z,3.00
2018-12-23T12:30:41.612Z,2.70
2018-12-23T12:33:10.640Z,2.80
2018-12-23T12:35:39.964Z,2.75
2018-12-23T12:38:09.024Z,3.10
2018-12-23T12:40:38.021Z,3.20
2018-12-23T12:55:06.801Z,2.83
2018-12-23T12:57:36.855Z,2.90
2018-12-23T13:00:06.458Z,2.95
2018-12-23T13:02:36.471Z,2.92
2018-12-23T13:05:05.582Z,2.80
2018-12-23T13:07:34.589Z,2.70
2018-12-23T13:10:03.987Z,2.77
2018-12-23T13:12:33.345Z,3.10
2018-12-23T13:15:02.462Z,2.90
2018-12-23T13:17:31.526Z,2.67
2018-12-23T13:20:00.978Z,2.90
2018-12-23T13:22:30.119Z,3.10
2018-12-23T13:24:59.170Z,3.10
2018-12-23T13:27:28.206Z,4.10
2018-12-23T13:29:57.387Z,3.33
2018-12-23T13:32:26.666Z,3.62
2018-12-23T13:34:55.991Z,3.20
2018-12-23T13:37:25.017Z,3.40
2018-12-23T13:39:55.409Z,3.27
2018-12-23T13:42:37.456Z,3.62
2018-12-23T13:46:20.589Z,3.47
2018-12-23T13:49:01.388Z,3.98
2018-12-23T13:51:40.476Z,3.65
2018-12-23T13:56:29.095Z,4.03
2018-12-23T13:59:40.932Z,2.87
2018-12-23T14:02:51.657Z,3.40
2018-12-23T14:05:34.536Z,3.08
2018-12-23T14:08:29.141Z,3.20
2018-12-23T14:12:08.460Z,3.20
2018-12-23T14:14:37.561Z,3.08
2018-12-23T14:17:06.771Z,3.00
2018-12-23T14:19:35.799Z,2.80
2018-12-23T14:22:04.960Z,3.40
2018-12-23T14:24:34.215Z,3.40
2018-12-23T14:27:03.238Z,3.10
2018-12-23T14:29:32.349Z,3.15
2018-12-23T14:32:01.400Z,3.40
2018-12-23T14:34:30.545Z,3.37
2018-12-23T14:36:59.815Z,3.08
2018-12-23T14:39:28.825Z,3.15
2018-12-23T14:41:58.804Z,3.42
2018-12-23T14:44:27.829Z,3.35
2018-12-23T14:46:56.851Z,3.85
2018-12-23T14:49:25.883Z,4.22
2018-12-23T14:51:55.123Z,4.55
2018-12-23T14:54:24.150Z,5.75
2018-12-23T14:56:53.153Z,4.97
2018-12-23T14:59:22.223Z,4.92
2018-12-23T15:01:51.322Z,4.35
2018-12-23T15:04:21.416Z,4.15
2018-12-23T15:06:50.431Z,3.30
2018-12-23T15:09:19.519Z,4.50
2018-12-23T15:11:48.573Z,4.70
2018-12-23T15:14:17.972Z,5.25
2018-12-23T15:16:47.745Z,4.50
2018-12-23T15:19:16.787Z,3.50
2018-12-23T15:21:46.815Z,3.20
2018-12-23T15:24:15.893Z,3.50
2018-12-23T15:26:44.935Z,2.83
2018-12-23T15:29:14.052Z,3.17
2018-12-23T15:31:43.066Z,3.40
2018-12-23T15:34:12.089Z,3.40
2018-12-23T15:36:41.129Z,3.42
2018-12-23T15:39:10.160Z,3.50
2018-12-23T15:41:39.201Z,3.60
2018-12-23T15:44:14.570Z,3.58
2018-12-23T15:46:43.890Z,3.27
2018-12-23T15:49:12.942Z,3.58
2018-12-23T15:51:42.978Z,3.02
2018-12-23T15:54:12.140Z,3.00
2018-12-23T15:56:42.239Z,3.40
2018-12-23T15:59:11.909Z,3.12
2018-12-23T16:01:45.041Z,3.20
2018-12-23T16:04:17.180Z,3.40
2018-12-23T16:06:48.356Z,3.80
2018-12-23T16:09:19.435Z,3.22
2018-12-23T16:11:50.518Z,3.45
2018-12-23T16:14:20.814Z,3.22
2018-12-23T16:16:50.536Z,4.03
2018-12-23T16:19:20.043Z,4.47
2018-12-23T16:21:51.868Z,4.05
2018-12-23T16:24:22.276Z,3.95
2018-12-23T16:26:53.436Z,3.90
2018-12-23T16:29:23.664Z,3.55
2018-12-23T16:31:55.598Z,3.90
2018-12-23T16:34:25.964Z,3.70
2018-12-23T16:36:56.896Z,3.75
2018-12-23T16:39:29.592Z,4.35
2018-12-23T16:41:59.298Z,4.03
2018-12-23T16:44:28.806Z,3.60
2018-12-23T16:46:59.926Z,3.40
2018-12-23T16:49:30.124Z,3.35
2018-12-23T16:52:02.198Z,2.90
2018-12-23T16:54:31.219Z,3.52
2018-12-23T16:57:01.912Z,3.70
2018-12-23T16:59:33.218Z,3.58
2018-12-23T17:02:02.492Z,5.10
2018-12-23T17:04:31.522Z,4.42
2018-12-23T17:07:01.792Z,4.60
2018-12-23T17:09:31.104Z,4.35
2018-12-23T17:12:37.805Z,4.40
2018-12-23T17:15:09.007Z,4.22
2018-12-23T17:17:39.734Z,3.90
2018-12-23T17:20:12.647Z,3.72
2018-12-23T17:22:42.918Z,4.00
2018-12-23T17:25:13.586Z,3.83
2018-12-23T17:27:43.742Z,4.00
2018-12-23T17:30:14.339Z,3.85
2018-12-23T17:32:44.586Z,3.02
2018-12-23T17:35:14.893Z,3.55
2018-12-23T17:37:45.290Z,4.53
2018-12-23T17:40:16.562Z,5.80
2018-12-23T17:42:47.001Z,5.35
2018-12-23T17:45:17.156Z,5.90
2018-12-23T17:47:47.525Z,5.28
2018-12-23T17:50:17.747Z,6.85
2018-12-23T17:52:48.108Z,6.10
2018-12-23T17:55:18.559Z,6.28
2018-12-23T17:57:48.937Z,5.08
2018-12-23T18:00:19.604Z,5.28
2018-12-23T18:02:50.120Z,4.40
2018-12-23T18:05:20.727Z,4.37
2018-12-23T18:07:50.936Z,3.85
2018-12-23T18:10:25.142Z,4.20
2018-12-23T18:12:54.135Z,4.40
2018-12-23T18:15:24.267Z,4.80
2018-12-23T18:17:54.375Z,4.08
2018-12-23T18:20:24.766Z,4.12
2018-12-23T18:22:54.969Z,4.17
2018-12-23T18:25:25.252Z,4.30
2018-12-23T18:27:55.824Z,4.28
2018-12-23T18:30:25.954Z,4.95
2018-12-23T18:32:56.090Z,3.92
2018-12-23T18:35:26.195Z,3.50
2018-12-23T18:37:56.681Z,4.25
2018-12-23T18:40:33.342Z,3.83
2018-12-23T18:42:59.232Z,3.50
2018-12-23T18:45:29.668Z,3.75
2018-12-23T18:47:59.840Z,4.33
2018-12-23T18:50:30.039Z,3.85
2018-12-23T18:53:00.178Z,3.27
2018-12-23T18:55:33.899Z,3.62
2018-12-23T18:58:08.952Z,3.83
2018-12-23T19:00:43.589Z,3.65
2018-12-23T19:03:14.611Z,3.52
2018-12-23T19:05:46.958Z,5.35
2018-12-23T19:08:22.148Z,3.77
2018-12-23T19:11:35.518Z,3.83
2018-12-23T19:14:59.747Z,3.90
2018-12-23T19:18:07.112Z,3.35
2018-12-23T19:21:10.936Z,3.37
2018-12-23T19:24:26.611Z,3.00
2018-12-23T19:27:53.531Z,3.00
2018-12-23T19:30:47.810Z,3.45
2018-12-23T19:33:36.681Z,2.95
2018-12-23T19:36:56.076Z,3.08
2018-12-23T19:40:02.737Z,2.95
2018-12-23T19:43:19.638Z,3.00
2018-12-23T19:46:47.034Z,2.90
2018-12-23T19:50:24.654Z,3.50
2018-12-23T19:53:29.902Z,3.62
2018-12-23T19:56:37.272Z,3.20
2018-12-23T19:59:46.781Z,3.47
2018-12-23T20:03:01.103Z,3.33
2018-12-23T20:06:05.160Z,3.80
2018-12-23T20:09:30.375Z,3.08
2018-12-23T20:12:59.798Z,3.12
2018-12-23T20:16:12.371Z,3.12
2018-12-23T20:19:33.939Z,3.02
2018-12-23T20:22:31.726Z,3.60
2018-12-23T20:25:36.579Z,3.75
2018-12-23T20:28:45.138Z,3.60
2018-12-23T20:32:06.661Z,3.58
2018-12-23T20:35:23.250Z,5.72
2018-12-23T20:38:26.952Z,5.67
2018-12-23T20:41:33.061Z,5.67
2018-12-23T20:44:42.227Z,4.20
2018-12-23T20:47:38.078Z,3.37
2018-12-23T20:50:28.326Z,3.55
2018-12-23T20:53:47.667Z,4.00
2018-12-23T20:57:16.442Z,3.33
2018-12-23T21:00:14.744Z,3.12
2018-12-23T21:03:18.764Z,3.83
2018-12-23T21:06:37.221Z,3.70
2018-12-23T21:10:16.255Z,3.55
2018-12-23T21:13:12.653Z,4.10
2018-12-23T21:16:26.518Z,4.53
2018-12-23T21:19:56.934Z,4.83
2018-12-23T21:23:03.612Z,4.97
2018-12-23T21:26:14.349Z,4.62
2018-12-23T21:29:53.865Z,5.03
2018-12-23T21:33:20.225Z,5.50
2018-12-23T21:36:42.592Z,4.90
2018-12-23T21:40:00.899Z,5.37
2018-12-23T21:43:14.449Z,5.47
2018-12-23T21:46:32.146Z,5.45
2018-12-23T21:49:49.000Z,5.53
2018-12-23T21:53:02.275Z,5.87
2018-12-23T21:56:01.572Z,4.22
2018-12-23T21:59:08.594Z,5.00
2018-12-23T22:02:16.504Z,4.67
2018-12-23T22:05:38.331Z,4.50
2018-12-23T22:08:38.378Z,4.20
2018-12-23T22:11:40.430Z,4.10
2018-12-23T22:14:10.857Z,4.33
2018-12-23T22:16:42.040Z,3.92
2018-12-23T22:19:12.648Z,3.92
2018-12-23T22:21:42.876Z,3.58
2018-12-23T22:24:13.025Z,3.45
2018-12-23T22:26:45.637Z,3.75
2018-12-23T22:29:15.771Z,3.70
2018-12-23T22:31:46.424Z,3.65
2018-12-23T22:34:16.652Z,3.15
2018-12-23T22:36:46.884Z,3.08
2018-12-23T22:39:17.498Z,2.60
2018-12-23T22:41:47.863Z,2.45
2018-12-23T22:44:17.978Z,2.80
2018-12-23T22:46:48.471Z,2.50
2018-12-23T22:49:18.589Z,2.20
2018-12-23T22:51:48.747Z,2.55
2018-12-23T22:54:18.869Z,1.90
2018-12-23T22:56:50.087Z,1.70
2018-12-23T22:59:20.241Z,1.92
2018-12-23T23:01:50.775Z,1.80
2018-12-23T23:04:20.944Z,1.72
2018-12-23T23:06:51.383Z,1.70
2018-12-23T23:09:21.729Z,1.70
2018-12-23T23:11:52.175Z,1.70
2018-12-23T23:14:22.644Z,1.50
2018-12-23T23:16:52.831Z,1.70
2018-12-23T23:19:23.297Z,1.40
2018-12-23T23:21:54.005Z,1.47
2018-12-23T23:24:26.010Z,1.20
2018-12-23T23:26:56.207Z,1.30
2018-12-23T23:29:26.620Z,1.15
2018-12-23T23:31:57.099Z,1.30
2018-12-23T23:34:27.278Z,1.12
2018-12-23T23:36:57.666Z,1.37
2018-12-23T23:39:28.496Z,1.20
2018-12-23T23:41:58.957Z,0.98
2018-12-23T23:44:29.132Z,1.07
2018-12-23T23:46:59.254Z,1.35
2018-12-23T23:49:30.035Z,1.15
2018-12-23T23:52:00.159Z,1.07
2018-12-23T23:54:30.594Z,1.30
2018-12-23T23:57:01.059Z,1.05
2018-12-23T23:59:31.238Z,0.68
